Terminal Aerodrome Forecast
Issued by NWS Binghamton, NY

Home | Current Version | Previous Version | Text Only | Print | Product List | Glossary On
Versions: 1 2 3 4 5 6 7 8 9 10 11 12 13 14 15 16 17 18 19 20 21 22 23 24 25 26
000
FTUS41 KBGM 250500 RRA
TAFSYR
TAF
KSYR 250548Z 2506/2606 24005KT P6SM SKC
     FM251000 24008KT P6SM OVC045
     FM251500 25012G22KT P6SM SCT045 BKN070
     FM252300 29010KT P6SM -SHRA OVC025
     FM260200 30012KT P6SM SCT025 OVC035=

USA.gov is the U.S. government's official web portal to all federal, state and local government web resources and services.